Tapejara, Brazil
Current Conditions -  °F | °C
As of 5:00 AM on Monday 22 Dec 2014 (Local Time) from SBMG Reporting Station
Thunderstorm Thunderstorm  
Wind Chill: 73°   Ceiling: 3500
Heat Index: 73°   Visibility: 6mi
Dew Point: 72°   Wind: 10mph
Humidity: 94%   Direction: 340°NNW
Pressure: NA   Gusts: NA
Location:  23.68°S, 52.88°W
Report Text: SBMG 220700Z 34009KT 9999 VCTS FEW008 BKN035 FEW040CB 23/22 Q1008
Loading
Personal Weather Stations






























Interactive Weather Map New forecast layout! Learn more

10-Day Weather Forecast

Advertisements
Track Severe Weather on mobile